sensor_id;sensor_type;location;lat;lon;timestamp;P1;durP1;ratioP1;P2;durP2;ratioP2
23539;SDS011;11947;50.810;4.394;2023-08-06T00:00:04;6.20;;;2.55;;
23539;SDS011;11947;50.810;4.394;2023-08-06T00:02:30;7.82;;;3.00;;
23539;SDS011;11947;50.810;4.394;2023-08-06T00:04:56;7.60;;;2.67;;
23539;SDS011;11947;50.810;4.394;2023-08-06T00:07:22;5.65;;;2.60;;
23539;SDS011;11947;50.810;4.394;2023-08-06T00:09:47;6.97;;;2.85;;
23539;SDS011;11947;50.810;4.394;2023-08-06T00:12:13;11.05;;;3.03;;
23539;SDS011;11947;50.810;4.394;2023-08-06T00:14:39;6.57;;;3.33;;
23539;SDS011;11947;50.810;4.394;2023-08-06T00:17:04;7.97;;;2.90;;
23539;SDS011;11947;50.810;4.394;2023-08-06T00:19:31;5.93;;;2.95;;
23539;SDS011;11947;50.810;4.394;2023-08-06T00:21:57;6.55;;;3.08;;
23539;SDS011;11947;50.810;4.394;2023-08-06T00:24:22;6.60;;;3.40;;
23539;SDS011;11947;50.810;4.394;2023-08-06T00:26:48;7.82;;;3.70;;
23539;SDS011;11947;50.810;4.394;2023-08-06T00:31:42;6.80;;;3.58;;
23539;SDS011;11947;50.810;4.394;2023-08-06T00:34:08;11.23;;;4.40;;
23539;SDS011;11947;50.810;4.394;2023-08-06T00:36:33;12.57;;;4.50;;
23539;SDS011;11947;50.810;4.394;2023-08-06T00:39:00;7.30;;;3.90;;
23539;SDS011;11947;50.810;4.394;2023-08-06T00:41:26;13.25;;;4.65;;
23539;SDS011;11947;50.810;4.394;2023-08-06T00:43:51;9.00;;;4.50;;
23539;SDS011;11947;50.810;4.394;2023-08-06T00:46:17;14.05;;;5.05;;
23539;SDS011;11947;50.810;4.394;2023-08-06T00:49:03;11.43;;;5.18;;
23539;SDS011;11947;50.810;4.394;2023-08-06T00:52:03;10.77;;;5.60;;
23539;SDS011;11947;50.810;4.394;2023-08-06T00:54:52;13.88;;;5.70;;
23539;SDS011;11947;50.810;4.394;2023-08-06T00:57:46;10.80;;;6.15;;
23539;SDS011;11947;50.810;4.394;2023-08-06T01:00:24;14.27;;;5.47;;
23539;SDS011;11947;50.810;4.394;2023-08-06T01:02:53;12.80;;;5.20;;
23539;SDS011;11947;50.810;4.394;2023-08-06T01:05:20;14.38;;;5.20;;
23539;SDS011;11947;50.810;4.394;2023-08-06T01:07:50;11.30;;;5.50;;
23539;SDS011;11947;50.810;4.394;2023-08-06T01:13:24;14.73;;;6.35;;
23539;SDS011;11947;50.810;4.394;2023-08-06T01:16:03;15.68;;;6.50;;
23539;SDS011;11947;50.810;4.394;2023-08-06T01:18:35;20.02;;;6.45;;
23539;SDS011;11947;50.810;4.394;2023-08-06T01:21:16;16.23;;;6.82;;
23539;SDS011;11947;50.810;4.394;2023-08-06T01:23:42;18.35;;;7.15;;
23539;SDS011;11947;50.810;4.394;2023-08-06T01:29:19;15.20;;;6.53;;
23539;SDS011;11947;50.810;4.394;2023-08-06T01:31:56;19.02;;;7.43;;
23539;SDS011;11947;50.810;4.394;2023-08-06T01:34:25;18.25;;;7.63;;
23539;SDS011;11947;50.810;4.394;2023-08-06T01:39:22;17.35;;;7.28;;
23539;SDS011;11947;50.810;4.394;2023-08-06T01:41:57;19.80;;;8.18;;
23539;SDS011;11947;50.810;4.394;2023-08-06T01:44:26;15.60;;;7.57;;
23539;SDS011;11947;50.810;4.394;2023-08-06T01:46:53;15.90;;;7.32;;
23539;SDS011;11947;50.810;4.394;2023-08-06T01:49:20;18.23;;;7.53;;
23539;SDS011;11947;50.810;4.394;2023-08-06T01:51:46;16.77;;;7.82;;
23539;SDS011;11947;50.810;4.394;2023-08-06T01:54:16;14.70;;;7.82;;
23539;SDS011;11947;50.810;4.394;2023-08-06T01:56:53;16.67;;;7.00;;
23539;SDS011;11947;50.810;4.394;2023-08-06T01:59:18;15.88;;;7.90;;
23539;SDS011;11947;50.810;4.394;2023-08-06T02:02:00;17.95;;;6.63;;
23539;SDS011;11947;50.810;4.394;2023-08-06T02:04:25;12.57;;;6.10;;
23539;SDS011;11947;50.810;4.394;2023-08-06T02:06:51;13.07;;;5.55;;
23539;SDS011;11947;50.810;4.394;2023-08-06T02:09:17;11.48;;;5.30;;
23539;SDS011;11947;50.810;4.394;2023-08-06T02:11:43;11.38;;;5.72;;
23539;SDS011;11947;50.810;4.394;2023-08-06T02:14:09;8.48;;;5.10;;
23539;SDS011;11947;50.810;4.394;2023-08-06T02:16:36;13.63;;;4.80;;
23539;SDS011;11947;50.810;4.394;2023-08-06T02:19:02;10.13;;;3.95;;
23539;SDS011;11947;50.810;4.394;2023-08-06T02:21:29;15.10;;;3.97;;
23539;SDS011;11947;50.810;4.394;2023-08-06T02:23:58;12.55;;;3.83;;
23539;SDS011;11947;50.810;4.394;2023-08-06T02:26:43;8.32;;;3.97;;
23539;SDS011;11947;50.810;4.394;2023-08-06T02:29:09;11.00;;;4.03;;
23539;SDS011;11947;50.810;4.394;2023-08-06T02:31:39;9.25;;;3.60;;
23539;SDS011;11947;50.810;4.394;2023-08-06T02:34:11;10.70;;;3.83;;
23539;SDS011;11947;50.810;4.394;2023-08-06T02:36:39;8.02;;;3.92;;
23539;SDS011;11947;50.810;4.394;2023-08-06T02:39:07;8.43;;;3.80;;
23539;SDS011;11947;50.810;4.394;2023-08-06T02:41:33;8.10;;;3.88;;
23539;SDS011;11947;50.810;4.394;2023-08-06T02:44:00;8.20;;;3.80;;
23539;SDS011;11947;50.810;4.394;2023-08-06T02:46:26;8.75;;;3.60;;
23539;SDS011;11947;50.810;4.394;2023-08-06T02:48:52;8.65;;;3.35;;
23539;SDS011;11947;50.810;4.394;2023-08-06T02:51:18;6.07;;;3.50;;
23539;SDS011;11947;50.810;4.394;2023-08-06T02:53:49;11.15;;;5.28;;
23539;SDS011;11947;50.810;4.394;2023-08-06T02:56:16;7.55;;;3.53;;
23539;SDS011;11947;50.810;4.394;2023-08-06T02:58:43;6.10;;;3.55;;
23539;SDS011;11947;50.810;4.394;2023-08-06T03:01:09;7.40;;;3.25;;
23539;SDS011;11947;50.810;4.394;2023-08-06T03:03:35;11.77;;;3.72;;
23539;SDS011;11947;50.810;4.394;2023-08-06T03:06:00;10.45;;;4.05;;
23539;SDS011;11947;50.810;4.394;2023-08-06T03:08:33;7.03;;;3.40;;
23539;SDS011;11947;50.810;4.394;2023-08-06T03:10:59;6.75;;;3.80;;
23539;SDS011;11947;50.810;4.394;2023-08-06T03:13:25;10.52;;;3.55;;
23539;SDS011;11947;50.810;4.394;2023-08-06T03:16:16;10.65;;;4.25;;
23539;SDS011;11947;50.810;4.394;2023-08-06T03:18:42;9.73;;;4.93;;
23539;SDS011;11947;50.810;4.394;2023-08-06T03:21:09;10.75;;;5.20;;
23539;SDS011;11947;50.810;4.394;2023-08-06T03:23:35;11.98;;;4.72;;
23539;SDS011;11947;50.810;4.394;2023-08-06T03:26:04;14.23;;;5.80;;
23539;SDS011;11947;50.810;4.394;2023-08-06T03:28:31;17.52;;;6.85;;
23539;SDS011;11947;50.810;4.394;2023-08-06T03:31:00;23.55;;;8.00;;
23539;SDS011;11947;50.810;4.394;2023-08-06T03:33:27;20.17;;;8.15;;
23539;SDS011;11947;50.810;4.394;2023-08-06T03:35:52;25.40;;;8.88;;
23539;SDS011;11947;50.810;4.394;2023-08-06T03:38:18;22.42;;;7.45;;
23539;SDS011;11947;50.810;4.394;2023-08-06T03:40:45;19.90;;;8.23;;
23539;SDS011;11947;50.810;4.394;2023-08-06T03:43:12;24.23;;;7.80;;
23539;SDS011;11947;50.810;4.394;2023-08-06T03:45:41;23.83;;;7.43;;
23539;SDS011;11947;50.810;4.394;2023-08-06T03:48:07;18.38;;;7.10;;
23539;SDS011;11947;50.810;4.394;2023-08-06T03:50:33;15.88;;;6.25;;
23539;SDS011;11947;50.810;4.394;2023-08-06T03:53:02;13.63;;;5.75;;
23539;SDS011;11947;50.810;4.394;2023-08-06T03:55:29;12.32;;;4.97;;
23539;SDS011;11947;50.810;4.394;2023-08-06T03:57:54;10.13;;;4.30;;
23539;SDS011;11947;50.810;4.394;2023-08-06T04:02:54;5.53;;;2.90;;
23539;SDS011;11947;50.810;4.394;2023-08-06T04:05:22;2.83;;;1.98;;
23539;SDS011;11947;50.810;4.394;2023-08-06T04:07:47;3.15;;;2.00;;
23539;SDS011;11947;50.810;4.394;2023-08-06T04:10:14;7.45;;;1.42;;
23539;SDS011;11947;50.810;4.394;2023-08-06T04:12:40;6.82;;;1.60;;
23539;SDS011;11947;50.810;4.394;2023-08-06T04:15:06;3.70;;;1.50;;
23539;SDS011;11947;50.810;4.394;2023-08-06T04:17:32;2.58;;;1.23;;
23539;SDS011;11947;50.810;4.394;2023-08-06T04:19:57;5.22;;;1.70;;
23539;SDS011;11947;50.810;4.394;2023-08-06T04:22:27;2.47;;;1.45;;
23539;SDS011;11947;50.810;4.394;2023-08-06T04:24:53;8.13;;;1.60;;
23539;SDS011;11947;50.810;4.394;2023-08-06T04:27:19;3.30;;;1.70;;
23539;SDS011;11947;50.810;4.394;2023-08-06T04:29:44;4.00;;;2.00;;
23539;SDS011;11947;50.810;4.394;2023-08-06T04:32:10;4.25;;;2.22;;
23539;SDS011;11947;50.810;4.394;2023-08-06T04:34:36;4.15;;;2.42;;
23539;SDS011;11947;50.810;4.394;2023-08-06T04:37:02;4.60;;;2.33;;
23539;SDS011;11947;50.810;4.394;2023-08-06T04:39:29;7.53;;;2.90;;
23539;SDS011;11947;50.810;4.394;2023-08-06T04:41:55;5.70;;;3.00;;
23539;SDS011;11947;50.810;4.394;2023-08-06T04:44:22;9.45;;;3.75;;
23539;SDS011;11947;50.810;4.394;2023-08-06T04:46:48;7.32;;;3.80;;
23539;SDS011;11947;50.810;4.394;2023-08-06T04:49:14;6.38;;;3.70;;
23539;SDS011;11947;50.810;4.394;2023-08-06T04:51:51;7.95;;;4.57;;
23539;SDS011;11947;50.810;4.394;2023-08-06T04:54:17;9.90;;;3.92;;
23539;SDS011;11947;50.810;4.394;2023-08-06T04:56:43;12.70;;;4.18;;
23539;SDS011;11947;50.810;4.394;2023-08-06T04:59:08;9.25;;;4.75;;
23539;SDS011;11947;50.810;4.394;2023-08-06T05:01:34;9.77;;;4.93;;
23539;SDS011;11947;50.810;4.394;2023-08-06T05:04:00;15.57;;;4.93;;
23539;SDS011;11947;50.810;4.394;2023-08-06T05:06:25;9.00;;;5.47;;
23539;SDS011;11947;50.810;4.394;2023-08-06T05:08:51;9.45;;;5.28;;
23539;SDS011;11947;50.810;4.394;2023-08-06T05:11:16;8.50;;;5.05;;
23539;SDS011;11947;50.810;4.394;2023-08-06T05:13:42;9.27;;;5.40;;
23539;SDS011;11947;50.810;4.394;2023-08-06T05:16:09;8.93;;;5.75;;
23539;SDS011;11947;50.810;4.394;2023-08-06T05:18:35;11.13;;;5.28;;
23539;SDS011;11947;50.810;4.394;2023-08-06T05:21:02;16.20;;;5.20;;
23539;SDS011;11947;50.810;4.394;2023-08-06T05:23:28;11.98;;;5.30;;
23539;SDS011;11947;50.810;4.394;2023-08-06T05:25:53;9.70;;;4.82;;
23539;SDS011;11947;50.810;4.394;2023-08-06T05:28:19;11.07;;;4.80;;
23539;SDS011;11947;50.810;4.394;2023-08-06T05:30:45;12.85;;;5.30;;
23539;SDS011;11947;50.810;4.394;2023-08-06T05:33:10;10.90;;;5.80;;
23539;SDS011;11947;50.810;4.394;2023-08-06T05:35:36;14.63;;;5.28;;
23539;SDS011;11947;50.810;4.394;2023-08-06T05:38:02;12.15;;;5.15;;
23539;SDS011;11947;50.810;4.394;2023-08-06T05:40:28;13.32;;;4.75;;
23539;SDS011;11947;50.810;4.394;2023-08-06T05:42:53;17.33;;;4.85;;
23539;SDS011;11947;50.810;4.394;2023-08-06T05:45:19;20.17;;;4.82;;
23539;SDS011;11947;50.810;4.394;2023-08-06T05:47:45;13.80;;;4.55;;
23539;SDS011;11947;50.810;4.394;2023-08-06T05:50:13;13.93;;;4.60;;
23539;SDS011;11947;50.810;4.394;2023-08-06T05:52:39;15.25;;;5.43;;
23539;SDS011;11947;50.810;4.394;2023-08-06T05:55:04;14.65;;;5.53;;
23539;SDS011;11947;50.810;4.394;2023-08-06T05:57:30;18.83;;;5.68;;
23539;SDS011;11947;50.810;4.394;2023-08-06T05:59:56;13.45;;;5.07;;
23539;SDS011;11947;50.810;4.394;2023-08-06T06:02:22;15.38;;;5.03;;
23539;SDS011;11947;50.810;4.394;2023-08-06T06:04:47;18.92;;;4.57;;
23539;SDS011;11947;50.810;4.394;2023-08-06T06:07:13;12.73;;;4.88;;
23539;SDS011;11947;50.810;4.394;2023-08-06T06:09:39;16.67;;;5.25;;
23539;SDS011;11947;50.810;4.394;2023-08-06T06:12:05;16.58;;;4.82;;
23539;SDS011;11947;50.810;4.394;2023-08-06T06:14:31;14.18;;;4.82;;
23539;SDS011;11947;50.810;4.394;2023-08-06T06:16:56;13.50;;;4.70;;
23539;SDS011;11947;50.810;4.394;2023-08-06T06:19:25;9.52;;;4.25;;
23539;SDS011;11947;50.810;4.394;2023-08-06T06:21:50;14.20;;;4.40;;
23539;SDS011;11947;50.810;4.394;2023-08-06T06:24:16;13.00;;;4.60;;
23539;SDS011;11947;50.810;4.394;2023-08-06T06:26:41;14.70;;;4.78;;
23539;SDS011;11947;50.810;4.394;2023-08-06T06:29:07;13.85;;;4.63;;
23539;SDS011;11947;50.810;4.394;2023-08-06T06:31:33;9.68;;;4.50;;
23539;SDS011;11947;50.810;4.394;2023-08-06T06:33:58;11.63;;;4.30;;
23539;SDS011;11947;50.810;4.394;2023-08-06T06:36:24;12.05;;;4.88;;
23539;SDS011;11947;50.810;4.394;2023-08-06T06:38:50;12.07;;;4.40;;
23539;SDS011;11947;50.810;4.394;2023-08-06T06:41:15;12.88;;;4.18;;
23539;SDS011;11947;50.810;4.394;2023-08-06T06:43:41;11.18;;;3.90;;
23539;SDS011;11947;50.810;4.394;2023-08-06T06:46:07;11.02;;;4.40;;
23539;SDS011;11947;50.810;4.394;2023-08-06T06:48:32;16.35;;;4.57;;
23539;SDS011;11947;50.810;4.394;2023-08-06T06:50:58;10.48;;;4.07;;
23539;SDS011;11947;50.810;4.394;2023-08-06T06:53:24;12.15;;;3.65;;
23539;SDS011;11947;50.810;4.394;2023-08-06T06:56:00;13.50;;;4.97;;
23539;SDS011;11947;50.810;4.394;2023-08-06T06:58:27;10.30;;;3.83;;
23539;SDS011;11947;50.810;4.394;2023-08-06T07:00:55;13.25;;;4.30;;
23539;SDS011;11947;50.810;4.394;2023-08-06T07:03:21;11.43;;;3.83;;
23539;SDS011;11947;50.810;4.394;2023-08-06T07:05:48;9.23;;;3.50;;
23539;SDS011;11947;50.810;4.394;2023-08-06T07:08:14;16.38;;;3.70;;
23539;SDS011;11947;50.810;4.394;2023-08-06T07:10:41;13.55;;;3.75;;
23539;SDS011;11947;50.810;4.394;2023-08-06T07:13:09;11.73;;;3.17;;
23539;SDS011;11947;50.810;4.394;2023-08-06T07:15:35;9.68;;;2.72;;
23539;SDS011;11947;50.810;4.394;2023-08-06T07:18:06;8.52;;;2.20;;
23539;SDS011;11947;50.810;4.394;2023-08-06T07:20:33;10.90;;;2.30;;
23539;SDS011;11947;50.810;4.394;2023-08-06T07:22:59;10.88;;;2.47;;
23539;SDS011;11947;50.810;4.394;2023-08-06T07:25:27;7.22;;;2.33;;
23539;SDS011;11947;50.810;4.394;2023-08-06T07:27:57;7.22;;;2.22;;
23539;SDS011;11947;50.810;4.394;2023-08-06T07:30:29;7.95;;;2.20;;
23539;SDS011;11947;50.810;4.394;2023-08-06T07:32:56;11.20;;;2.35;;
23539;SDS011;11947;50.810;4.394;2023-08-06T07:35:21;5.20;;;1.95;;
23539;SDS011;11947;50.810;4.394;2023-08-06T07:37:48;8.15;;;1.90;;
23539;SDS011;11947;50.810;4.394;2023-08-06T07:40:14;8.90;;;1.75;;
23539;SDS011;11947;50.810;4.394;2023-08-06T07:42:39;8.68;;;1.95;;
23539;SDS011;11947;50.810;4.394;2023-08-06T07:45:06;10.68;;;1.90;;
23539;SDS011;11947;50.810;4.394;2023-08-06T07:47:32;6.97;;;1.48;;
23539;SDS011;11947;50.810;4.394;2023-08-06T07:49:59;8.07;;;1.58;;
23539;SDS011;11947;50.810;4.394;2023-08-06T07:52:24;8.32;;;1.63;;
23539;SDS011;11947;50.810;4.394;2023-08-06T07:54:53;12.35;;;1.70;;
23539;SDS011;11947;50.810;4.394;2023-08-06T07:57:18;8.13;;;1.75;;
23539;SDS011;11947;50.810;4.394;2023-08-06T07:59:46;9.27;;;1.52;;
23539;SDS011;11947;50.810;4.394;2023-08-06T08:02:11;11.70;;;2.03;;
23539;SDS011;11947;50.810;4.394;2023-08-06T08:04:37;11.63;;;1.70;;
23539;SDS011;11947;50.810;4.394;2023-08-06T08:07:02;8.73;;;1.50;;
23539;SDS011;11947;50.810;4.394;2023-08-06T08:09:28;8.60;;;1.52;;
23539;SDS011;11947;50.810;4.394;2023-08-06T08:11:55;11.82;;;1.75;;
23539;SDS011;11947;50.810;4.394;2023-08-06T08:14:21;4.97;;;1.45;;
23539;SDS011;11947;50.810;4.394;2023-08-06T08:16:47;14.50;;;2.28;;
23539;SDS011;11947;50.810;4.394;2023-08-06T08:19:14;6.65;;;1.90;;
23539;SDS011;11947;50.810;4.394;2023-08-06T08:21:39;4.68;;;1.58;;
23539;SDS011;11947;50.810;4.394;2023-08-06T08:24:05;8.13;;;2.08;;
23539;SDS011;11947;50.810;4.394;2023-08-06T08:29:06;8.60;;;1.95;;
23539;SDS011;11947;50.810;4.394;2023-08-06T08:31:34;7.40;;;2.00;;
23539;SDS011;11947;50.810;4.394;2023-08-06T08:34:26;7.78;;;1.70;;
23539;SDS011;11947;50.810;4.394;2023-08-06T08:36:53;9.45;;;1.90;;
23539;SDS011;11947;50.810;4.394;2023-08-06T08:39:22;3.83;;;1.67;;
23539;SDS011;11947;50.810;4.394;2023-08-06T08:41:56;8.02;;;1.80;;
23539;SDS011;11947;50.810;4.394;2023-08-06T08:44:22;7.05;;;1.80;;
23539;SDS011;11947;50.810;4.394;2023-08-06T08:47:04;10.95;;;1.67;;
23539;SDS011;11947;50.810;4.394;2023-08-06T08:49:31;7.97;;;1.90;;
23539;SDS011;11947;50.810;4.394;2023-08-06T08:51:57;4.82;;;1.60;;
23539;SDS011;11947;50.810;4.394;2023-08-06T08:54:26;7.70;;;1.90;;
23539;SDS011;11947;50.810;4.394;2023-08-06T08:56:53;5.45;;;1.60;;
23539;SDS011;11947;50.810;4.394;2023-08-06T08:59:21;10.38;;;1.85;;
23539;SDS011;11947;50.810;4.394;2023-08-06T09:01:47;7.75;;;1.75;;
23539;SDS011;11947;50.810;4.394;2023-08-06T09:04:18;6.38;;;1.60;;
23539;SDS011;11947;50.810;4.394;2023-08-06T09:06:46;8.20;;;1.80;;
23539;SDS011;11947;50.810;4.394;2023-08-06T09:09:36;6.97;;;1.95;;
23539;SDS011;11947;50.810;4.394;2023-08-06T09:12:06;5.95;;;1.48;;
23539;SDS011;11947;50.810;4.394;2023-08-06T09:14:43;9.48;;;1.73;;
23539;SDS011;11947;50.810;4.394;2023-08-06T09:17:17;4.10;;;1.35;;
23539;SDS011;11947;50.810;4.394;2023-08-06T09:19:45;4.95;;;1.52;;
23539;SDS011;11947;50.810;4.394;2023-08-06T09:22:13;5.85;;;1.55;;
23539;SDS011;11947;50.810;4.394;2023-08-06T09:24:43;10.93;;;1.83;;
23539;SDS011;11947;50.810;4.394;2023-08-06T09:27:12;4.00;;;1.70;;
23539;SDS011;11947;50.810;4.394;2023-08-06T09:29:56;8.82;;;2.00;;
23539;SDS011;11947;50.810;4.394;2023-08-06T09:32:22;7.72;;;1.50;;
23539;SDS011;11947;50.810;4.394;2023-08-06T09:34:55;7.05;;;1.90;;
23539;SDS011;11947;50.810;4.394;2023-08-06T09:37:35;9.38;;;2.22;;
23539;SDS011;11947;50.810;4.394;2023-08-06T09:40:02;10.15;;;2.08;;
23539;SDS011;11947;50.810;4.394;2023-08-06T09:42:28;8.65;;;2.15;;
23539;SDS011;11947;50.810;4.394;2023-08-06T09:44:55;7.40;;;2.00;;
23539;SDS011;11947;50.810;4.394;2023-08-06T09:47:31;11.98;;;2.60;;
23539;SDS011;11947;50.810;4.394;2023-08-06T09:49:57;5.93;;;1.85;;
23539;SDS011;11947;50.810;4.394;2023-08-06T09:52:23;4.80;;;1.92;;
23539;SDS011;11947;50.810;4.394;2023-08-06T09:54:49;8.77;;;2.03;;
23539;SDS011;11947;50.810;4.394;2023-08-06T09:57:15;6.10;;;2.10;;
23539;SDS011;11947;50.810;4.394;2023-08-06T09:59:41;7.40;;;1.98;;
23539;SDS011;11947;50.810;4.394;2023-08-06T10:02:12;11.65;;;2.40;;
23539;SDS011;11947;50.810;4.394;2023-08-06T10:04:42;6.10;;;1.98;;
23539;SDS011;11947;50.810;4.394;2023-08-06T10:07:11;12.93;;;2.00;;
23539;SDS011;11947;50.810;4.394;2023-08-06T10:09:37;8.40;;;2.03;;
23539;SDS011;11947;50.810;4.394;2023-08-06T10:12:03;7.82;;;2.58;;
23539;SDS011;11947;50.810;4.394;2023-08-06T10:14:43;6.00;;;2.03;;
23539;SDS011;11947;50.810;4.394;2023-08-06T10:17:10;9.90;;;2.38;;
23539;SDS011;11947;50.810;4.394;2023-08-06T10:19:37;8.40;;;2.33;;
23539;SDS011;11947;50.810;4.394;2023-08-06T10:22:15;8.07;;;1.83;;
23539;SDS011;11947;50.810;4.394;2023-08-06T10:27:14;7.40;;;1.95;;
23539;SDS011;11947;50.810;4.394;2023-08-06T10:29:47;6.03;;;1.75;;
23539;SDS011;11947;50.810;4.394;2023-08-06T10:32:14;9.50;;;1.95;;
23539;SDS011;11947;50.810;4.394;2023-08-06T10:34:56;9.52;;;1.98;;
23539;SDS011;11947;50.810;4.394;2023-08-06T10:37:23;8.27;;;1.55;;
23539;SDS011;11947;50.810;4.394;2023-08-06T10:39:59;6.57;;;1.85;;
23539;SDS011;11947;50.810;4.394;2023-08-06T10:42:28;8.60;;;1.60;;
23539;SDS011;11947;50.810;4.394;2023-08-06T10:47:44;6.68;;;1.63;;
23539;SDS011;11947;50.810;4.394;2023-08-06T10:50:11;7.30;;;1.95;;
23539;SDS011;11947;50.810;4.394;2023-08-06T10:52:39;9.82;;;2.08;;
23539;SDS011;11947;50.810;4.394;2023-08-06T10:55:05;8.95;;;2.30;;
23539;SDS011;11947;50.810;4.394;2023-08-06T10:57:31;8.95;;;2.10;;
23539;SDS011;11947;50.810;4.394;2023-08-06T10:59:56;10.57;;;2.40;;
23539;SDS011;11947;50.810;4.394;2023-08-06T11:02:22;9.57;;;2.30;;
23539;SDS011;11947;50.810;4.394;2023-08-06T11:04:49;6.93;;;2.30;;
23539;SDS011;11947;50.810;4.394;2023-08-06T11:07:16;12.93;;;2.60;;
23539;SDS011;11947;50.810;4.394;2023-08-06T11:09:42;11.63;;;2.50;;
23539;SDS011;11947;50.810;4.394;2023-08-06T11:12:10;7.55;;;2.80;;
23539;SDS011;11947;50.810;4.394;2023-08-06T11:14:36;10.25;;;2.40;;
23539;SDS011;11947;50.810;4.394;2023-08-06T11:17:03;8.38;;;2.38;;
23539;SDS011;11947;50.810;4.394;2023-08-06T11:19:30;6.05;;;2.50;;
23539;SDS011;11947;50.810;4.394;2023-08-06T11:21:56;9.68;;;2.70;;
23539;SDS011;11947;50.810;4.394;2023-08-06T11:24:23;5.75;;;2.38;;
23539;SDS011;11947;50.810;4.394;2023-08-06T11:26:49;9.48;;;2.67;;
23539;SDS011;11947;50.810;4.394;2023-08-06T11:29:15;9.82;;;2.63;;
23539;SDS011;11947;50.810;4.394;2023-08-06T11:31:41;7.65;;;2.28;;
23539;SDS011;11947;50.810;4.394;2023-08-06T11:34:06;7.43;;;2.40;;
23539;SDS011;11947;50.810;4.394;2023-08-06T11:36:37;7.88;;;2.13;;
23539;SDS011;11947;50.810;4.394;2023-08-06T11:39:06;7.47;;;2.17;;
23539;SDS011;11947;50.810;4.394;2023-08-06T11:41:32;5.38;;;1.48;;
23539;SDS011;11947;50.810;4.394;2023-08-06T11:44:01;5.45;;;1.60;;
23539;SDS011;11947;50.810;4.394;2023-08-06T11:46:27;5.38;;;1.60;;
23539;SDS011;11947;50.810;4.394;2023-08-06T11:48:56;4.53;;;1.80;;
23539;SDS011;11947;50.810;4.394;2023-08-06T11:51:23;4.43;;;1.60;;
23539;SDS011;11947;50.810;4.394;2023-08-06T11:54:00;6.60;;;1.75;;
23539;SDS011;11947;50.810;4.394;2023-08-06T11:56:25;5.85;;;1.40;;
23539;SDS011;11947;50.810;4.394;2023-08-06T11:58:52;7.35;;;2.15;;
23539;SDS011;11947;50.810;4.394;2023-08-06T12:01:19;8.75;;;1.55;;
23539;SDS011;11947;50.810;4.394;2023-08-06T12:03:45;4.07;;;1.70;;
23539;SDS011;11947;50.810;4.394;2023-08-06T12:06:11;4.15;;;1.60;;
23539;SDS011;11947;50.810;4.394;2023-08-06T12:08:37;8.60;;;2.00;;
23539;SDS011;11947;50.810;4.394;2023-08-06T12:11:03;6.75;;;1.80;;
23539;SDS011;11947;50.810;4.394;2023-08-06T12:13:29;6.75;;;1.55;;
23539;SDS011;11947;50.810;4.394;2023-08-06T12:15:55;8.90;;;1.60;;
23539;SDS011;11947;50.810;4.394;2023-08-06T12:18:22;5.07;;;1.63;;
23539;SDS011;11947;50.810;4.394;2023-08-06T12:20:48;5.47;;;1.70;;
23539;SDS011;11947;50.810;4.394;2023-08-06T12:23:13;5.15;;;1.55;;
23539;SDS011;11947;50.810;4.394;2023-08-06T12:25:40;7.53;;;1.83;;
23539;SDS011;11947;50.810;4.394;2023-08-06T12:28:06;6.60;;;1.83;;
23539;SDS011;11947;50.810;4.394;2023-08-06T12:30:33;9.82;;;2.15;;
23539;SDS011;11947;50.810;4.394;2023-08-06T12:32:59;9.90;;;1.60;;
23539;SDS011;11947;50.810;4.394;2023-08-06T12:35:24;8.38;;;1.95;;
23539;SDS011;11947;50.810;4.394;2023-08-06T12:37:51;6.95;;;1.85;;
23539;SDS011;11947;50.810;4.394;2023-08-06T12:40:19;9.70;;;2.00;;
23539;SDS011;11947;50.810;4.394;2023-08-06T12:42:45;6.70;;;1.80;;
23539;SDS011;11947;50.810;4.394;2023-08-06T12:45:11;7.25;;;1.73;;
23539;SDS011;11947;50.810;4.394;2023-08-06T12:47:37;8.30;;;1.92;;
23539;SDS011;11947;50.810;4.394;2023-08-06T12:50:02;5.20;;;1.70;;
23539;SDS011;11947;50.810;4.394;2023-08-06T12:52:28;5.75;;;1.95;;
23539;SDS011;11947;50.810;4.394;2023-08-06T12:54:54;4.60;;;1.50;;
23539;SDS011;11947;50.810;4.394;2023-08-06T12:57:20;4.55;;;1.92;;
23539;SDS011;11947;50.810;4.394;2023-08-06T12:59:45;7.28;;;1.40;;
23539;SDS011;11947;50.810;4.394;2023-08-06T13:02:11;4.32;;;1.80;;
23539;SDS011;11947;50.810;4.394;2023-08-06T13:04:37;3.63;;;1.50;;
23539;SDS011;11947;50.810;4.394;2023-08-06T13:07:02;7.30;;;1.67;;
23539;SDS011;11947;50.810;4.394;2023-08-06T13:09:28;8.63;;;1.70;;
23539;SDS011;11947;50.810;4.394;2023-08-06T13:11:54;8.65;;;1.80;;
23539;SDS011;11947;50.810;4.394;2023-08-06T13:14:20;9.27;;;2.20;;
23539;SDS011;11947;50.810;4.394;2023-08-06T13:16:46;8.85;;;2.20;;
23539;SDS011;11947;50.810;4.394;2023-08-06T13:19:12;8.77;;;2.22;;
23539;SDS011;11947;50.810;4.394;2023-08-06T13:24:05;9.32;;;2.20;;
23539;SDS011;11947;50.810;4.394;2023-08-06T13:26:31;7.50;;;1.90;;
23539;SDS011;11947;50.810;4.394;2023-08-06T13:28:58;6.90;;;2.20;;
23539;SDS011;11947;50.810;4.394;2023-08-06T13:31:24;10.10;;;2.15;;
23539;SDS011;11947;50.810;4.394;2023-08-06T13:33:51;7.10;;;1.92;;
23539;SDS011;11947;50.810;4.394;2023-08-06T13:36:17;3.78;;;1.65;;
23539;SDS011;11947;50.810;4.394;2023-08-06T13:38:42;6.38;;;1.90;;
23539;SDS011;11947;50.810;4.394;2023-08-06T13:41:08;11.93;;;2.08;;
23539;SDS011;11947;50.810;4.394;2023-08-06T13:43:34;13.60;;;2.20;;
23539;SDS011;11947;50.810;4.394;2023-08-06T13:45:59;6.60;;;2.00;;
23539;SDS011;11947;50.810;4.394;2023-08-06T13:48:25;7.40;;;1.80;;
23539;SDS011;11947;50.810;4.394;2023-08-06T13:50:50;8.98;;;2.17;;
23539;SDS011;11947;50.810;4.394;2023-08-06T13:53:16;7.93;;;1.90;;
23539;SDS011;11947;50.810;4.394;2023-08-06T13:55:42;6.78;;;1.80;;
23539;SDS011;11947;50.810;4.394;2023-08-06T13:58:07;5.28;;;1.60;;
23539;SDS011;11947;50.810;4.394;2023-08-06T14:00:33;5.90;;;1.52;;
23539;SDS011;11947;50.810;4.394;2023-08-06T14:03:00;6.65;;;1.90;;
23539;SDS011;11947;50.810;4.394;2023-08-06T14:05:26;4.45;;;1.60;;
23539;SDS011;11947;50.810;4.394;2023-08-06T14:07:52;5.95;;;1.60;;
23539;SDS011;11947;50.810;4.394;2023-08-06T14:10:17;4.95;;;1.40;;
23539;SDS011;11947;50.810;4.394;2023-08-06T14:12:43;6.05;;;1.75;;
23539;SDS011;11947;50.810;4.394;2023-08-06T14:15:09;7.25;;;1.40;;
23539;SDS011;11947;50.810;4.394;2023-08-06T14:17:36;5.28;;;1.30;;
23539;SDS011;11947;50.810;4.394;2023-08-06T14:20:01;6.95;;;1.48;;
23539;SDS011;11947;50.810;4.394;2023-08-06T14:22:29;8.10;;;1.45;;
23539;SDS011;11947;50.810;4.394;2023-08-06T14:24:58;7.97;;;1.40;;
23539;SDS011;11947;50.810;4.394;2023-08-06T14:27:24;6.50;;;1.60;;
23539;SDS011;11947;50.810;4.394;2023-08-06T14:29:50;6.05;;;1.45;;
23539;SDS011;11947;50.810;4.394;2023-08-06T14:32:15;6.32;;;1.70;;
23539;SDS011;11947;50.810;4.394;2023-08-06T14:34:43;9.27;;;1.80;;
23539;SDS011;11947;50.810;4.394;2023-08-06T14:37:09;9.25;;;1.60;;
23539;SDS011;11947;50.810;4.394;2023-08-06T14:39:36;5.53;;;1.55;;
23539;SDS011;11947;50.810;4.394;2023-08-06T14:42:01;7.43;;;1.60;;
23539;SDS011;11947;50.810;4.394;2023-08-06T14:44:28;10.77;;;1.58;;
23539;SDS011;11947;50.810;4.394;2023-08-06T14:46:53;8.80;;;1.40;;
23539;SDS011;11947;50.810;4.394;2023-08-06T14:49:19;9.48;;;2.08;;
23539;SDS011;11947;50.810;4.394;2023-08-06T14:51:45;8.75;;;1.60;;
23539;SDS011;11947;50.810;4.394;2023-08-06T14:54:11;6.80;;;1.95;;
23539;SDS011;11947;50.810;4.394;2023-08-06T14:56:36;9.88;;;2.28;;
23539;SDS011;11947;50.810;4.394;2023-08-06T14:59:02;5.80;;;1.92;;
23539;SDS011;11947;50.810;4.394;2023-08-06T15:01:28;7.97;;;1.90;;
23539;SDS011;11947;50.810;4.394;2023-08-06T15:03:53;8.73;;;2.10;;
23539;SDS011;11947;50.810;4.394;2023-08-06T15:06:19;6.20;;;1.88;;
23539;SDS011;11947;50.810;4.394;2023-08-06T15:08:45;7.55;;;1.80;;